This is the latest recevied weather packets stored in our database for station/object PGUM. If no packets are shown the sender has not sent any weather packets the latest 1 day(s).
| Time | Temp. | Humidity | Pressure | Rain* | Wind** | Luminosity | Snow |
|---|---|---|---|---|---|---|---|
| 1778037828 | 28.89° C | 83% | 1010.8 hPa | - | 8.05 m/s, 90° | - | - |
| 1778037224 | 28.89° C | 83% | 1010.8 hPa | - | 8.05 m/s, 90° | - | - |
| 1778036622 | 28.89° C | 83% | 1010.8 hPa | - | 8.05 m/s, 90° | - | - |
| 1778036023 | 28.89° C | 79% | 1011.2 hPa | - | 10.28 m/s, 80° | - | - |
| 1778035423 | 28.89° C | 83% | 1011.5 hPa | - | 8.49 m/s, 90° | - | - |
| 1778034822 | 28.89° C | 83% | 1011.5 hPa | - | 8.49 m/s, 90° | - | - |
| 1778034225 | 28.89° C | 83% | 1011.5 hPa | - | 8.49 m/s, 90° | - | - |
| 1778033625 | 28.89° C | 83% | 1011.5 hPa | - | 8.49 m/s, 90° | - | - |
| 1778033025 | 28.89° C | 83% | 1011.5 hPa | - | 8.49 m/s, 90° | - | - |
| 1778032425 | 27.78° C | 78% | 1011.9 hPa | - | 7.15 m/s, 90° | - | - |
| 1778031824 | 30° C | 70% | 1012.2 hPa | - | 9.39 m/s, 90° | - | - |
| 1778031225 | 30° C | 70% | 1012.2 hPa | - | 9.39 m/s, 90° | - | - |
| 1778030623 | 30° C | 70% | 1012.2 hPa | - | 9.39 m/s, 90° | - | - |
| 1778030026 | 30° C | 70% | 1012.2 hPa | - | 9.39 m/s, 90° | - | - |
| 1778029423 | 30° C | 70% | 1012.2 hPa | - | 9.39 m/s, 90° | - | - |
| 1778028826 | 28.89° C | 79% | 1012.5 hPa | - | 8.94 m/s, 80° | - | - |
| 1778028224 | 28.89° C | 79% | 1012.5 hPa | - | 8.94 m/s, 80° | - | - |
| 1778027623 | 28.89° C | 79% | 1012.5 hPa | - | 8.94 m/s, 80° | - | - |
| 1778027023 | 28.89° C | 79% | 1012.5 hPa | - | 8.94 m/s, 80° | - | - |
| 1778026429 | 28.89° C | 79% | 1012.5 hPa | - | 8.94 m/s, 80° | - | - |
| 1778025826 | 28.89° C | 79% | 1012.5 hPa | - | 8.94 m/s, 80° | - | - |
| 1778025227 | 27.78° C | 83% | 1012.5 hPa | - | 9.39 m/s, 80° | - | - |
| 1778024622 | 27.78° C | 83% | 1012.5 hPa | - | 9.39 m/s, 80° | - | - |
| 1778024026 | 27.78° C | 83% | 1012.5 hPa | - | 9.39 m/s, 80° | - | - |
| 1778023427 | 27.78° C | 83% | 1012.5 hPa | - | 9.39 m/s, 80° | - | - |
* Rain since midnight (hover to see other rain measurements)
** Current wind speed in m/s (hover to see current wind gust speed)